»·PEaware :: XOJ550 KSJC-KAFO

XOJ550 :: KSJC-KAFO

FLIGHT INFORMATION

Flight Status: Arrived
Operator:
XOJET
More flights by this operator :: More flights under this callsign
Pilot: Charles S. (11412)
Aircraft: BOMBARDIER BD-100 CHALLENGER 300
(CL30)
More flights by this aircraft type
Origin: KSJC Mineta San Jose Intl
United States
Destination: KAFO Afton Mun
United States
More flights between these airports :: More routes between these airports
Route: +SUNOL9 LIN JADDE LCU J158 MLD
File this flight plan on PilotEdge
Remarks:
Altitude:
(Current/Filed)
45,000ft
Speed:
(Current/Filed)
270kts
Departed: 22-Sep-18 08:21 AM
Arrived: 22-Sep-18 09:48 AM
Distance/Time
Traveled:
597nm/1:27
Distance/Time
To Go:
Arrived

Flight Plot

Page will automatically refresh every two minutes.

Flight plan parsing failed; only flown route is shown


Map Options




Map Legend


Flown Route
Filed Route
Departure Airport
Arrival Airport
Navaid (VOR, NDB)
Fix

Horizontal Profiles

Position Reports

Time Latitude Longitude Heading Altitude Ground
Speed
22-Sep-18 08:05 37.357471 -121.929597 334 57ft 0kts
22-Sep-18 08:06 37.357471 -121.929597 334 57ft 0kts
22-Sep-18 08:07 37.357471 -121.929597 334 57ft 0kts
22-Sep-18 08:08 37.357471 -121.929597 334 57ft 0kts
22-Sep-18 08:09 37.357471 -121.929597 334 57ft 0kts
22-Sep-18 08:10 37.357471 -121.929597 334 57ft 0kts
22-Sep-18 08:11 37.357471 -121.929597 334 57ft 0kts
22-Sep-18 08:12 37.357471 -121.929597 334 57ft 0kts
22-Sep-18 08:13 37.357471 -121.929597 334 57ft 0kts
22-Sep-18 08:14 37.357471 -121.929597 334 57ft 0kts
22-Sep-18 08:15 37.357471 -121.929597 334 57ft 0kts
22-Sep-18 08:16 37.357498 -121.929613 333 57ft 0kts
22-Sep-18 08:17 37.357498 -121.929613 333 57ft 0kts
22-Sep-18 08:18 37.357681 -121.929659 9 57ft 1kts
22-Sep-18 08:19 37.356309 -121.927305 138 59ft 24kts
22-Sep-18 08:20 37.354819 -121.923491 75 59ft 15kts
22-Sep-18 08:21 37.352603 -121.920786 138 62ft 9kts
22-Sep-18 08:22 37.352937 -121.919194 321 63ft 6kts
22-Sep-18 08:23 37.380198 -121.949793 317 1892ft 210kts
22-Sep-18 08:24 37.426278 -121.931860 53 3279ft 212kts
22-Sep-18 08:25 37.476237 -121.889686 27 6112ft 257kts
22-Sep-18 08:26 37.543168 -121.848244 26 8932ft 278kts
22-Sep-18 08:27 37.607388 -121.800150 51 11556ft 341kts
22-Sep-18 08:28 37.667090 -121.703563 53 14347ft 364kts
22-Sep-18 08:29 37.728865 -121.599600 53 17150ft 383kts
22-Sep-18 08:30 37.793229 -121.489796 54 19954ft 403kts
22-Sep-18 08:31 37.861029 -121.373410 53 22781ft 424kts
22-Sep-18 08:32 37.929622 -121.255166 54 25496ft 444kts
22-Sep-18 08:33 38.003167 -121.127902 54 28303ft 454kts
22-Sep-18 08:34 38.076767 -120.998843 56 31096ft 453kts
22-Sep-18 08:35 38.142529 -120.871309 56 33225ft 459kts
22-Sep-18 08:36 38.212548 -120.734508 56 35076ft 468kts
22-Sep-18 08:37 38.283416 -120.595296 56 36877ft 473kts
22-Sep-18 08:38 38.354253 -120.455537 56 38667ft 475kts
22-Sep-18 08:39 38.424046 -120.317251 57 40428ft 473kts
22-Sep-18 08:40 38.494448 -120.177148 57 42194ft 469kts
22-Sep-18 08:41 38.564501 -120.037142 57 43489ft 474kts
22-Sep-18 08:42 38.635626 -119.894367 57 44692ft 479kts
22-Sep-18 08:43 38.707543 -119.749362 57 45234ft 498kts
22-Sep-18 08:44 38.780808 -119.600964 57 45212ft 504kts
22-Sep-18 08:45 38.854763 -119.450470 57 45214ft 500kts
22-Sep-18 08:46 38.927886 -119.300982 57 45210ft 504kts
22-Sep-18 08:47 39.002628 -119.147462 58 45193ft 512kts
22-Sep-18 08:48 39.077973 -118.991927 58 45169ft 515kts
22-Sep-18 08:49 39.152642 -118.837042 58 45163ft 508kts
22-Sep-18 08:50 39.226335 -118.683447 58 45165ft 507kts
22-Sep-18 08:51 39.300191 -118.528768 58 45166ft 508kts
22-Sep-18 08:52 39.373482 -118.374506 58 45167ft 508kts
22-Sep-18 08:53 39.446260 -118.220586 58 45162ft 507kts
22-Sep-18 08:54 39.519286 -118.065359 58 45164ft 508kts
22-Sep-18 08:55 39.592228 -117.909585 58 45165ft 508kts
22-Sep-18 08:56 39.652671 -117.779898 58 45166ft 508kts
22-Sep-18 08:57 39.737500 -117.597006 58 45168ft 508kts
22-Sep-18 08:58 39.809687 -117.440519 58 45180ft 508kts
22-Sep-18 08:59 39.881430 -117.284203 59 45182ft 508kts
22-Sep-18 09:00 39.941304 -117.153146 59 45184ft 508kts
22-Sep-18 09:01 40.013163 -116.995104 59 45185ft 506kts
22-Sep-18 09:02 40.095973 -116.811979 59 45186ft 504kts
22-Sep-18 09:03 40.154188 -116.682602 59 45183ft 504kts
22-Sep-18 09:04 40.236359 -116.499048 59 45184ft 504kts
22-Sep-18 09:05 40.295446 -116.366378 59 45188ft 504kts
22-Sep-18 09:06 40.365443 -116.208452 59 45219ft 504kts
22-Sep-18 09:07 40.435300 -116.050048 59 45237ft 504kts
22-Sep-18 09:08 40.505104 -115.890937 59 45238ft 504kts
22-Sep-18 09:09 40.574237 -115.730994 60 45239ft 504kts
22-Sep-18 09:10 40.643087 -115.570639 60 45241ft 504kts
22-Sep-18 09:11 40.711711 -115.409954 60 45242ft 504kts
22-Sep-18 09:12 40.779876 -115.249502 60 45237ft 504kts
22-Sep-18 09:13 40.847931 -115.088446 61 45238ft 503kts
22-Sep-18 09:14 40.915403 -114.927927 61 45237ft 500kts
22-Sep-18 09:15 40.982118 -114.768315 60 45214ft 501kts
22-Sep-18 09:16 41.049652 -114.605870 60 45206ft 510kts
22-Sep-18 09:17 41.116637 -114.443883 60 45204ft 517kts
22-Sep-18 09:18 41.184508 -114.278900 60 45197ft 517kts
22-Sep-18 09:19 41.252843 -114.111819 60 45199ft 517kts
22-Sep-18 09:20 41.320992 -113.944261 60 45200ft 517kts
22-Sep-18 09:21 41.398415 -113.784701 49 45203ft 515kts
22-Sep-18 09:22 41.488771 -113.636108 48 44628ft 523kts
22-Sep-18 09:23 41.579100 -113.487943 48 43166ft 504kts
22-Sep-18 09:24 41.667227 -113.342925 49 42014ft 507kts
22-Sep-18 09:25 41.755308 -113.197288 49 40788ft 496kts
22-Sep-18 09:26 41.840022 -113.056523 49 38972ft 477kts
22-Sep-18 09:27 41.922748 -112.918456 49 37199ft 476kts
22-Sep-18 09:28 42.005117 -112.780384 48 35433ft 475kts
22-Sep-18 09:29 42.084898 -112.645990 48 33628ft 448kts
22-Sep-18 09:30 42.160311 -112.518475 48 31810ft 428kts
22-Sep-18 09:31 42.206930 -112.376056 76 29962ft 419kts
22-Sep-18 09:32 42.230649 -112.225238 79 28115ft 405kts
22-Sep-18 09:33 42.251454 -112.078767 80 26203ft 392kts
22-Sep-18 09:34 42.270835 -111.937853 80 23995ft 375kts
22-Sep-18 09:35 42.289023 -111.803612 80 21808ft 359kts
22-Sep-18 09:36 42.306392 -111.674144 80 19614ft 344kts
22-Sep-18 09:37 42.322033 -111.556593 80 18007ft 340kts
22-Sep-18 09:38 42.337733 -111.437601 80 16414ft 311kts
22-Sep-18 09:39 42.352078 -111.327847 81 14655ft 297kts
22-Sep-18 09:40 42.366154 -111.219276 81 13027ft 290kts
22-Sep-18 09:41 42.372106 -111.112886 91 12027ft 283kts
22-Sep-18 09:42 42.372410 -111.009306 91 11530ft 256kts
22-Sep-18 09:43 42.415128 -110.956747 2 10998ft 237kts
22-Sep-18 09:44 42.478124 -110.949064 357 10132ft 215kts
22-Sep-18 09:45 42.532252 -110.945791 355 10099ft 178kts
22-Sep-18 09:46 42.578252 -110.942272 356 9438ft 176kts
22-Sep-18 09:47 42.622451 -110.942601 354 7984ft 143kts
22-Sep-18 09:48 42.660478 -110.942437 354 7120ft 130kts
22-Sep-18 09:49 42.694534 -110.942337 352 6324ft 117kts
22-Sep-18 09:50 42.713967 -110.942219 359 6169ft 24kts
22-Sep-18 09:51 42.713636 -110.941090 180 6170ft 19kts
22-Sep-18 09:52 42.709969 -110.940727 134 6173ft 14kts
22-Sep-18 09:53 42.709639 -110.940579 185 6174ft 0kts

Navigation Log

Ident Type
Flight plan parsing failed, navigation log unavailable